sensor_id;sensor_type;location;lat;lon;timestamp;P1;durP1;ratioP1;P2;durP2;ratioP2
1436;SDS011;712;51.026;13.792;2023-06-10T00:00:24;9.57;;;6.45;;
1436;SDS011;712;51.026;13.792;2023-06-10T00:02:49;10.40;;;6.63;;
1436;SDS011;712;51.026;13.792;2023-06-10T00:05:14;9.73;;;6.67;;
1436;SDS011;712;51.026;13.792;2023-06-10T00:07:41;11.02;;;7.18;;
1436;SDS011;712;51.026;13.792;2023-06-10T00:10:06;10.03;;;6.27;;
1436;SDS011;712;51.026;13.792;2023-06-10T00:12:31;10.05;;;6.53;;
1436;SDS011;712;51.026;13.792;2023-06-10T00:15:01;11.95;;;7.65;;
1436;SDS011;712;51.026;13.792;2023-06-10T00:17:27;9.43;;;6.63;;
1436;SDS011;712;51.026;13.792;2023-06-10T00:19:53;12.27;;;7.35;;
1436;SDS011;712;51.026;13.792;2023-06-10T00:22:20;9.80;;;6.90;;
1436;SDS011;712;51.026;13.792;2023-06-10T00:24:47;9.82;;;7.38;;
1436;SDS011;712;51.026;13.792;2023-06-10T00:27:12;9.35;;;6.57;;
1436;SDS011;712;51.026;13.792;2023-06-10T00:29:37;9.57;;;6.47;;
1436;SDS011;712;51.026;13.792;2023-06-10T00:34:29;11.13;;;7.07;;
1436;SDS011;712;51.026;13.792;2023-06-10T00:36:54;9.43;;;7.07;;
1436;SDS011;712;51.026;13.792;2023-06-10T00:39:19;9.80;;;6.83;;
1436;SDS011;712;51.026;13.792;2023-06-10T00:41:44;8.90;;;6.40;;
1436;SDS011;712;51.026;13.792;2023-06-10T00:44:10;10.90;;;7.13;;
1436;SDS011;712;51.026;13.792;2023-06-10T00:46:35;11.03;;;6.90;;
1436;SDS011;712;51.026;13.792;2023-06-10T00:49:02;9.45;;;7.03;;
1436;SDS011;712;51.026;13.792;2023-06-10T00:51:27;9.90;;;8.02;;
1436;SDS011;712;51.026;13.792;2023-06-10T00:53:52;9.77;;;7.67;;
1436;SDS011;712;51.026;13.792;2023-06-10T00:56:18;9.20;;;7.00;;
1436;SDS011;712;51.026;13.792;2023-06-10T00:58:43;10.17;;;7.10;;
1436;SDS011;712;51.026;13.792;2023-06-10T01:01:08;11.33;;;7.70;;
1436;SDS011;712;51.026;13.792;2023-06-10T01:03:35;10.45;;;7.30;;
1436;SDS011;712;51.026;13.792;2023-06-10T01:06:45;12.05;;;8.02;;
1436;SDS011;712;51.026;13.792;2023-06-10T01:08:53;10.55;;;7.40;;
1436;SDS011;712;51.026;13.792;2023-06-10T01:11:21;12.70;;;7.43;;
1436;SDS011;712;51.026;13.792;2023-06-10T01:13:49;11.48;;;6.97;;
1436;SDS011;712;51.026;13.792;2023-06-10T01:16:16;10.50;;;7.22;;
1436;SDS011;712;51.026;13.792;2023-06-10T01:18:41;9.82;;;6.50;;
1436;SDS011;712;51.026;13.792;2023-06-10T01:21:07;10.07;;;7.50;;
1436;SDS011;712;51.026;13.792;2023-06-10T01:23:32;11.68;;;7.85;;
1436;SDS011;712;51.026;13.792;2023-06-10T01:26:02;12.23;;;7.93;;
1436;SDS011;712;51.026;13.792;2023-06-10T01:30:59;11.13;;;7.57;;
1436;SDS011;712;51.026;13.792;2023-06-10T01:33:33;12.57;;;7.93;;
1436;SDS011;712;51.026;13.792;2023-06-10T01:35:59;11.40;;;7.38;;
1436;SDS011;712;51.026;13.792;2023-06-10T01:38:26;10.43;;;7.90;;
1436;SDS011;712;51.026;13.792;2023-06-10T01:40:52;10.60;;;7.60;;
1436;SDS011;712;51.026;13.792;2023-06-10T01:43:18;11.07;;;7.82;;
1436;SDS011;712;51.026;13.792;2023-06-10T01:45:44;12.35;;;7.55;;
1436;SDS011;712;51.026;13.792;2023-06-10T01:48:09;11.07;;;7.80;;
1436;SDS011;712;51.026;13.792;2023-06-10T01:50:34;10.60;;;7.60;;
1436;SDS011;712;51.026;13.792;2023-06-10T01:53:00;10.95;;;8.13;;
1436;SDS011;712;51.026;13.792;2023-06-10T01:55:25;10.23;;;7.32;;
1436;SDS011;712;51.026;13.792;2023-06-10T01:57:50;11.80;;;7.63;;
1436;SDS011;712;51.026;13.792;2023-06-10T02:02:41;9.95;;;7.20;;
1436;SDS011;712;51.026;13.792;2023-06-10T02:05:07;10.17;;;7.90;;
1436;SDS011;712;51.026;13.792;2023-06-10T02:07:32;13.70;;;8.00;;
1436;SDS011;712;51.026;13.792;2023-06-10T02:09:57;10.63;;;7.72;;
1436;SDS011;712;51.026;13.792;2023-06-10T02:12:22;11.87;;;7.13;;
1436;SDS011;712;51.026;13.792;2023-06-10T02:14:47;11.07;;;8.40;;
1436;SDS011;712;51.026;13.792;2023-06-10T02:17:13;10.27;;;7.30;;
1436;SDS011;712;51.026;13.792;2023-06-10T02:19:39;9.63;;;7.30;;
1436;SDS011;712;51.026;13.792;2023-06-10T02:22:07;10.45;;;7.35;;
1436;SDS011;712;51.026;13.792;2023-06-10T02:24:32;10.30;;;7.47;;
1436;SDS011;712;51.026;13.792;2023-06-10T02:26:57;10.02;;;7.32;;
1436;SDS011;712;51.026;13.792;2023-06-10T02:29:25;10.27;;;7.55;;
1436;SDS011;712;51.026;13.792;2023-06-10T02:31:50;8.95;;;6.80;;
1436;SDS011;712;51.026;13.792;2023-06-10T02:34:17;11.95;;;8.32;;
1436;SDS011;712;51.026;13.792;2023-06-10T02:36:42;11.82;;;8.10;;
1436;SDS011;712;51.026;13.792;2023-06-10T02:39:08;10.48;;;7.28;;
1436;SDS011;712;51.026;13.792;2023-06-10T02:41:33;11.17;;;7.90;;
1436;SDS011;712;51.026;13.792;2023-06-10T02:43:58;11.90;;;8.18;;
1436;SDS011;712;51.026;13.792;2023-06-10T02:46:23;11.15;;;7.68;;
1436;SDS011;712;51.026;13.792;2023-06-10T02:48:48;11.30;;;7.23;;
1436;SDS011;712;51.026;13.792;2023-06-10T02:51:16;11.32;;;7.80;;
1436;SDS011;712;51.026;13.792;2023-06-10T02:53:41;11.35;;;7.32;;
1436;SDS011;712;51.026;13.792;2023-06-10T02:56:07;9.45;;;7.55;;
1436;SDS011;712;51.026;13.792;2023-06-10T02:58:32;13.57;;;8.27;;
1436;SDS011;712;51.026;13.792;2023-06-10T03:00:57;11.47;;;7.97;;
1436;SDS011;712;51.026;13.792;2023-06-10T03:03:23;12.40;;;8.77;;
1436;SDS011;712;51.026;13.792;2023-06-10T03:05:48;11.53;;;8.97;;
1436;SDS011;712;51.026;13.792;2023-06-10T03:08:13;11.77;;;8.50;;
1436;SDS011;712;51.026;13.792;2023-06-10T03:10:38;12.20;;;8.47;;
1436;SDS011;712;51.026;13.792;2023-06-10T03:13:04;11.75;;;8.65;;
1436;SDS011;712;51.026;13.792;2023-06-10T03:15:29;10.52;;;8.32;;
1436;SDS011;712;51.026;13.792;2023-06-10T03:17:58;12.68;;;8.02;;
1436;SDS011;712;51.026;13.792;2023-06-10T03:20:23;12.73;;;8.77;;
1436;SDS011;712;51.026;13.792;2023-06-10T03:22:48;11.20;;;8.40;;
1436;SDS011;712;51.026;13.792;2023-06-10T03:25:13;12.93;;;9.40;;
1436;SDS011;712;51.026;13.792;2023-06-10T03:27:42;13.75;;;8.70;;
1436;SDS011;712;51.026;13.792;2023-06-10T03:30:07;12.07;;;8.80;;
1436;SDS011;712;51.026;13.792;2023-06-10T03:32:33;12.23;;;7.72;;
1436;SDS011;712;51.026;13.792;2023-06-10T03:34:58;10.50;;;7.40;;
1436;SDS011;712;51.026;13.792;2023-06-10T03:37:24;11.20;;;8.30;;
1436;SDS011;712;51.026;13.792;2023-06-10T03:39:49;10.90;;;8.40;;
1436;SDS011;712;51.026;13.792;2023-06-10T03:42:14;10.17;;;7.60;;
1436;SDS011;712;51.026;13.792;2023-06-10T03:44:39;13.27;;;7.97;;
1436;SDS011;712;51.026;13.792;2023-06-10T03:47:05;10.63;;;7.63;;
1436;SDS011;712;51.026;13.792;2023-06-10T03:49:30;11.77;;;7.93;;
1436;SDS011;712;51.026;13.792;2023-06-10T03:51:55;10.97;;;8.40;;
1436;SDS011;712;51.026;13.792;2023-06-10T03:54:20;10.25;;;7.57;;
1436;SDS011;712;51.026;13.792;2023-06-10T03:56:46;11.00;;;7.13;;
1436;SDS011;712;51.026;13.792;2023-06-10T03:59:13;9.85;;;6.97;;
1436;SDS011;712;51.026;13.792;2023-06-10T04:01:38;11.70;;;6.93;;
1436;SDS011;712;51.026;13.792;2023-06-10T04:04:06;11.18;;;7.90;;
1436;SDS011;712;51.026;13.792;2023-06-10T04:06:31;9.32;;;6.68;;
1436;SDS011;712;51.026;13.792;2023-06-10T04:08:56;11.65;;;7.40;;
1436;SDS011;712;51.026;13.792;2023-06-10T04:11:24;9.55;;;6.90;;
1436;SDS011;712;51.026;13.792;2023-06-10T04:13:49;10.83;;;7.17;;
1436;SDS011;712;51.026;13.792;2023-06-10T04:16:15;9.73;;;7.43;;
1436;SDS011;712;51.026;13.792;2023-06-10T04:18:40;10.83;;;8.23;;
1436;SDS011;712;51.026;13.792;2023-06-10T04:21:06;13.32;;;9.20;;
1436;SDS011;712;51.026;13.792;2023-06-10T04:23:31;10.73;;;8.27;;
1436;SDS011;712;51.026;13.792;2023-06-10T04:25:57;13.82;;;8.93;;
1436;SDS011;712;51.026;13.792;2023-06-10T04:28:22;12.43;;;8.40;;
1436;SDS011;712;51.026;13.792;2023-06-10T04:30:47;11.30;;;8.10;;
1436;SDS011;712;51.026;13.792;2023-06-10T04:33:12;11.50;;;7.60;;
1436;SDS011;712;51.026;13.792;2023-06-10T04:35:38;11.03;;;8.70;;
1436;SDS011;712;51.026;13.792;2023-06-10T04:38:03;9.65;;;7.75;;
1436;SDS011;712;51.026;13.792;2023-06-10T04:40:28;11.80;;;8.57;;
1436;SDS011;712;51.026;13.792;2023-06-10T04:42:53;10.97;;;8.27;;
1436;SDS011;712;51.026;13.792;2023-06-10T04:45:18;12.85;;;7.90;;
1436;SDS011;712;51.026;13.792;2023-06-10T04:47:43;10.40;;;7.68;;
1436;SDS011;712;51.026;13.792;2023-06-10T04:50:09;10.90;;;8.07;;
1436;SDS011;712;51.026;13.792;2023-06-10T04:52:34;10.73;;;7.63;;
1436;SDS011;712;51.026;13.792;2023-06-10T04:54:59;12.37;;;7.97;;
1436;SDS011;712;51.026;13.792;2023-06-10T04:57:24;11.10;;;7.90;;
1436;SDS011;712;51.026;13.792;2023-06-10T04:59:49;10.87;;;7.93;;
1436;SDS011;712;51.026;13.792;2023-06-10T05:02:15;11.30;;;8.50;;
1436;SDS011;712;51.026;13.792;2023-06-10T05:04:40;11.13;;;8.00;;
1436;SDS011;712;51.026;13.792;2023-06-10T05:07:05;10.93;;;8.45;;
1436;SDS011;712;51.026;13.792;2023-06-10T05:09:30;11.13;;;7.70;;
1436;SDS011;712;51.026;13.792;2023-06-10T05:14:21;12.13;;;7.88;;
1436;SDS011;712;51.026;13.792;2023-06-10T05:16:46;9.53;;;7.10;;
1436;SDS011;712;51.026;13.792;2023-06-10T05:19:11;9.23;;;7.07;;
1436;SDS011;712;51.026;13.792;2023-06-10T05:21:36;8.83;;;6.43;;
1436;SDS011;712;51.026;13.792;2023-06-10T05:26:27;8.60;;;6.30;;
1436;SDS011;712;51.026;13.792;2023-06-10T05:28:53;11.20;;;5.72;;
1436;SDS011;712;51.026;13.792;2023-06-10T05:31:18;8.45;;;6.65;;
1436;SDS011;712;51.026;13.792;2023-06-10T05:36:09;8.80;;;7.10;;
1436;SDS011;712;51.026;13.792;2023-06-10T05:38:34;9.53;;;6.67;;
1436;SDS011;712;51.026;13.792;2023-06-10T05:40:59;9.18;;;6.30;;
1436;SDS011;712;51.026;13.792;2023-06-10T05:43:25;10.17;;;7.17;;
1436;SDS011;712;51.026;13.792;2023-06-10T05:45:50;9.10;;;6.45;;
1436;SDS011;712;51.026;13.792;2023-06-10T05:48:15;10.70;;;6.85;;
1436;SDS011;712;51.026;13.792;2023-06-10T05:50:40;8.57;;;6.63;;
1436;SDS011;712;51.026;13.792;2023-06-10T05:53:07;9.82;;;6.63;;
1436;SDS011;712;51.026;13.792;2023-06-10T05:55:39;8.85;;;7.03;;
1436;SDS011;712;51.026;13.792;2023-06-10T05:58:04;8.30;;;6.50;;
1436;SDS011;712;51.026;13.792;2023-06-10T06:00:29;8.80;;;5.87;;
1436;SDS011;712;51.026;13.792;2023-06-10T06:02:55;8.93;;;6.20;;
1436;SDS011;712;51.026;13.792;2023-06-10T06:05:22;8.38;;;6.28;;
1436;SDS011;712;51.026;13.792;2023-06-10T06:07:47;10.07;;;6.43;;
1436;SDS011;712;51.026;13.792;2023-06-10T06:10:12;7.65;;;5.43;;
1436;SDS011;712;51.026;13.792;2023-06-10T06:12:37;9.23;;;5.93;;
1436;SDS011;712;51.026;13.792;2023-06-10T06:15:02;7.73;;;5.50;;
1436;SDS011;712;51.026;13.792;2023-06-10T06:17:27;8.20;;;4.80;;
1436;SDS011;712;51.026;13.792;2023-06-10T06:19:53;7.30;;;5.43;;
1436;SDS011;712;51.026;13.792;2023-06-10T06:22:18;7.27;;;5.00;;
1436;SDS011;712;51.026;13.792;2023-06-10T06:24:46;7.90;;;5.55;;
1436;SDS011;712;51.026;13.792;2023-06-10T06:27:11;7.28;;;5.55;;
1436;SDS011;712;51.026;13.792;2023-06-10T06:29:36;6.97;;;5.43;;
1436;SDS011;712;51.026;13.792;2023-06-10T06:32:02;8.48;;;5.35;;
1436;SDS011;712;51.026;13.792;2023-06-10T06:34:27;8.73;;;5.77;;
1436;SDS011;712;51.026;13.792;2023-06-10T06:36:52;7.72;;;5.30;;
1436;SDS011;712;51.026;13.792;2023-06-10T06:39:17;7.57;;;5.72;;
1436;SDS011;712;51.026;13.792;2023-06-10T06:41:42;7.63;;;5.05;;
1436;SDS011;712;51.026;13.792;2023-06-10T06:44:07;7.53;;;5.40;;
1436;SDS011;712;51.026;13.792;2023-06-10T06:46:32;8.38;;;5.35;;
1436;SDS011;712;51.026;13.792;2023-06-10T06:48:58;7.73;;;5.30;;
1436;SDS011;712;51.026;13.792;2023-06-10T06:51:23;7.15;;;4.93;;
1436;SDS011;712;51.026;13.792;2023-06-10T06:53:48;7.70;;;5.22;;
1436;SDS011;712;51.026;13.792;2023-06-10T06:56:15;7.65;;;4.90;;
1436;SDS011;712;51.026;13.792;2023-06-10T06:58:41;8.03;;;5.27;;
1436;SDS011;712;51.026;13.792;2023-06-10T07:01:06;7.93;;;5.22;;
1436;SDS011;712;51.026;13.792;2023-06-10T07:03:31;9.70;;;4.70;;
1436;SDS011;712;51.026;13.792;2023-06-10T07:05:57;7.47;;;4.45;;
1436;SDS011;712;51.026;13.792;2023-06-10T07:08:22;7.23;;;4.60;;
1436;SDS011;712;51.026;13.792;2023-06-10T07:10:47;6.70;;;4.47;;
1436;SDS011;712;51.026;13.792;2023-06-10T07:13:14;7.65;;;4.70;;
1436;SDS011;712;51.026;13.792;2023-06-10T07:15:39;8.20;;;4.73;;
1436;SDS011;712;51.026;13.792;2023-06-10T07:18:04;6.45;;;4.50;;
1436;SDS011;712;51.026;13.792;2023-06-10T07:20:29;8.52;;;4.10;;
1436;SDS011;712;51.026;13.792;2023-06-10T07:22:54;7.00;;;4.28;;
1436;SDS011;712;51.026;13.792;2023-06-10T07:25:20;6.63;;;4.20;;
1436;SDS011;712;51.026;13.792;2023-06-10T07:27:45;7.93;;;5.93;;
1436;SDS011;712;51.026;13.792;2023-06-10T07:30:10;7.77;;;5.03;;
1436;SDS011;712;51.026;13.792;2023-06-10T07:32:36;8.48;;;4.95;;
1436;SDS011;712;51.026;13.792;2023-06-10T07:35:01;9.38;;;6.55;;
1436;SDS011;712;51.026;13.792;2023-06-10T07:37:26;8.97;;;6.50;;
1436;SDS011;712;51.026;13.792;2023-06-10T07:39:51;10.30;;;7.03;;
1436;SDS011;712;51.026;13.792;2023-06-10T07:42:16;11.57;;;7.00;;
1436;SDS011;712;51.026;13.792;2023-06-10T07:44:41;11.60;;;6.75;;
1436;SDS011;712;51.026;13.792;2023-06-10T07:47:06;11.50;;;6.93;;
1436;SDS011;712;51.026;13.792;2023-06-10T07:49:32;10.83;;;7.37;;
1436;SDS011;712;51.026;13.792;2023-06-10T07:51:57;10.25;;;6.55;;
1436;SDS011;712;51.026;13.792;2023-06-10T07:54:22;8.43;;;5.60;;
1436;SDS011;712;51.026;13.792;2023-06-10T07:56:47;8.65;;;5.70;;
1436;SDS011;712;51.026;13.792;2023-06-10T07:59:13;9.50;;;5.22;;
1436;SDS011;712;51.026;13.792;2023-06-10T08:04:04;10.40;;;5.43;;
1436;SDS011;712;51.026;13.792;2023-06-10T08:06:29;10.40;;;6.50;;
1436;SDS011;712;51.026;13.792;2023-06-10T08:08:55;8.40;;;5.37;;
1436;SDS011;712;51.026;13.792;2023-06-10T08:11:20;8.68;;;5.32;;
1436;SDS011;712;51.026;13.792;2023-06-10T08:13:45;9.53;;;5.23;;
1436;SDS011;712;51.026;13.792;2023-06-10T08:16:10;9.30;;;4.60;;
1436;SDS011;712;51.026;13.792;2023-06-10T08:21:01;6.40;;;4.40;;
1436;SDS011;712;51.026;13.792;2023-06-10T08:23:26;6.83;;;4.60;;
1436;SDS011;712;51.026;13.792;2023-06-10T08:25:51;7.93;;;4.70;;
1436;SDS011;712;51.026;13.792;2023-06-10T08:28:16;8.33;;;5.50;;
1436;SDS011;712;51.026;13.792;2023-06-10T08:30:41;8.55;;;5.13;;
1436;SDS011;712;51.026;13.792;2023-06-10T08:35:32;8.82;;;5.15;;
1436;SDS011;712;51.026;13.792;2023-06-10T08:37:57;6.47;;;5.00;;
1436;SDS011;712;51.026;13.792;2023-06-10T08:43:06;6.53;;;4.70;;
1436;SDS011;712;51.026;13.792;2023-06-10T08:45:32;7.45;;;5.03;;
1436;SDS011;712;51.026;13.792;2023-06-10T08:48:00;8.68;;;5.55;;
1436;SDS011;712;51.026;13.792;2023-06-10T08:50:27;8.68;;;5.38;;
1436;SDS011;712;51.026;13.792;2023-06-10T08:52:55;8.23;;;5.35;;
1436;SDS011;712;51.026;13.792;2023-06-10T08:55:23;7.85;;;5.25;;
1436;SDS011;712;51.026;13.792;2023-06-10T08:57:51;7.25;;;4.72;;
1436;SDS011;712;51.026;13.792;2023-06-10T09:02:43;7.22;;;4.70;;
1436;SDS011;712;51.026;13.792;2023-06-10T09:07:33;8.23;;;5.15;;
1436;SDS011;712;51.026;13.792;2023-06-10T09:10:01;8.38;;;4.88;;
1436;SDS011;712;51.026;13.792;2023-06-10T09:12:28;8.77;;;5.07;;
1436;SDS011;712;51.026;13.792;2023-06-10T09:17:18;8.20;;;4.60;;
1436;SDS011;712;51.026;13.792;2023-06-10T09:22:09;7.25;;;4.50;;
1436;SDS011;712;51.026;13.792;2023-06-10T09:27:03;7.27;;;4.70;;
1436;SDS011;712;51.026;13.792;2023-06-10T09:29:28;6.68;;;4.88;;
1436;SDS011;712;51.026;13.792;2023-06-10T09:34:19;7.93;;;4.88;;
1436;SDS011;712;51.026;13.792;2023-06-10T09:36:45;8.05;;;4.90;;
1436;SDS011;712;51.026;13.792;2023-06-10T09:41:39;7.57;;;5.00;;
1436;SDS011;712;51.026;13.792;2023-06-10T09:44:05;8.23;;;4.80;;
1436;SDS011;712;51.026;13.792;2023-06-10T09:46:33;8.15;;;5.05;;
1436;SDS011;712;51.026;13.792;2023-06-10T09:51:24;7.43;;;4.63;;
1436;SDS011;712;51.026;13.792;2023-06-10T09:56:15;7.00;;;5.00;;
1436;SDS011;712;51.026;13.792;2023-06-10T10:01:08;8.52;;;5.35;;
1436;SDS011;712;51.026;13.792;2023-06-10T10:05:59;7.63;;;4.73;;
1436;SDS011;712;51.026;13.792;2023-06-10T10:08:25;8.52;;;4.72;;
1436;SDS011;712;51.026;13.792;2023-06-10T10:13:15;9.95;;;4.97;;
1436;SDS011;712;51.026;13.792;2023-06-10T10:18:07;7.20;;;4.67;;
1436;SDS011;712;51.026;13.792;2023-06-10T10:20:33;6.60;;;4.55;;
1436;SDS011;712;51.026;13.792;2023-06-10T10:23:00;7.60;;;4.68;;
1436;SDS011;712;51.026;13.792;2023-06-10T10:25:34;7.25;;;4.75;;
1436;SDS011;712;51.026;13.792;2023-06-10T10:28:08;8.25;;;5.10;;
1436;SDS011;712;51.026;13.792;2023-06-10T10:30:40;6.57;;;4.32;;
1436;SDS011;712;51.026;13.792;2023-06-10T10:33:09;7.63;;;5.03;;
1436;SDS011;712;51.026;13.792;2023-06-10T10:35:37;7.28;;;4.63;;
1436;SDS011;712;51.026;13.792;2023-06-10T10:40:27;7.80;;;4.82;;
1436;SDS011;712;51.026;13.792;2023-06-10T10:42:55;9.82;;;4.60;;
1436;SDS011;712;51.026;13.792;2023-06-10T10:45:21;8.75;;;4.75;;
1436;SDS011;712;51.026;13.792;2023-06-10T10:50:15;10.55;;;5.63;;
1436;SDS011;712;51.026;13.792;2023-06-10T10:52:51;6.80;;;4.40;;
1436;SDS011;712;51.026;13.792;2023-06-10T10:55:17;8.43;;;4.25;;
1436;SDS011;712;51.026;13.792;2023-06-10T11:00:07;8.55;;;4.60;;
1436;SDS011;712;51.026;13.792;2023-06-10T11:02:40;10.02;;;4.63;;
1436;SDS011;712;51.026;13.792;2023-06-10T11:05:06;7.25;;;4.30;;
1436;SDS011;712;51.026;13.792;2023-06-10T11:07:32;10.50;;;4.25;;
1436;SDS011;712;51.026;13.792;2023-06-10T11:12:22;7.03;;;4.40;;
1436;SDS011;712;51.026;13.792;2023-06-10T11:14:53;8.32;;;4.43;;
1436;SDS011;712;51.026;13.792;2023-06-10T11:17:18;9.63;;;5.15;;
1436;SDS011;712;51.026;13.792;2023-06-10T11:22:15;7.88;;;4.63;;
1436;SDS011;712;51.026;13.792;2023-06-10T11:24:40;8.65;;;4.75;;
1436;SDS011;712;51.026;13.792;2023-06-10T11:29:31;7.90;;;4.68;;
1436;SDS011;712;51.026;13.792;2023-06-10T11:34:22;7.95;;;4.70;;
1436;SDS011;712;51.026;13.792;2023-06-10T11:36:52;8.65;;;4.72;;
1436;SDS011;712;51.026;13.792;2023-06-10T11:41:43;7.93;;;5.22;;
1436;SDS011;712;51.026;13.792;2023-06-10T11:48:59;8.15;;;4.47;;
1436;SDS011;712;51.026;13.792;2023-06-10T11:53:49;9.10;;;4.85;;
1436;SDS011;712;51.026;13.792;2023-06-10T11:58:41;9.57;;;4.80;;
1436;SDS011;712;51.026;13.792;2023-06-10T12:01:08;9.73;;;4.22;;
1436;SDS011;712;51.026;13.792;2023-06-10T12:06:05;6.90;;;4.25;;
1436;SDS011;712;51.026;13.792;2023-06-10T12:10:55;8.32;;;4.53;;
1436;SDS011;712;51.026;13.792;2023-06-10T12:15:46;7.93;;;5.53;;
1436;SDS011;712;51.026;13.792;2023-06-10T12:20:37;8.23;;;4.35;;
1436;SDS011;712;51.026;13.792;2023-06-10T12:25:28;10.43;;;4.80;;
1436;SDS011;712;51.026;13.792;2023-06-10T12:30:19;7.43;;;4.38;;
1436;SDS011;712;51.026;13.792;2023-06-10T12:32:46;8.35;;;4.70;;
1436;SDS011;712;51.026;13.792;2023-06-10T12:35:12;8.30;;;3.95;;
1436;SDS011;712;51.026;13.792;2023-06-10T12:37:38;7.85;;;4.28;;
1436;SDS011;712;51.026;13.792;2023-06-10T12:42:28;7.15;;;4.00;;
1436;SDS011;712;51.026;13.792;2023-06-10T12:44:55;7.68;;;5.03;;
1436;SDS011;712;51.026;13.792;2023-06-10T12:47:28;6.97;;;4.45;;
1436;SDS011;712;51.026;13.792;2023-06-10T12:49:53;9.77;;;4.70;;
1436;SDS011;712;51.026;13.792;2023-06-10T12:54:44;8.52;;;4.10;;
1436;SDS011;712;51.026;13.792;2023-06-10T12:57:09;7.63;;;4.55;;
1436;SDS011;712;51.026;13.792;2023-06-10T12:59:35;8.43;;;4.82;;
1436;SDS011;712;51.026;13.792;2023-06-10T13:02:02;6.60;;;3.92;;
1436;SDS011;712;51.026;13.792;2023-06-10T13:06:52;7.00;;;4.65;;
1436;SDS011;712;51.026;13.792;2023-06-10T13:09:17;6.68;;;4.90;;
1436;SDS011;712;51.026;13.792;2023-06-10T13:14:08;7.67;;;4.37;;
1436;SDS011;712;51.026;13.792;2023-06-10T13:16:33;6.63;;;4.15;;
1436;SDS011;712;51.026;13.792;2023-06-10T13:21:23;9.17;;;4.60;;
1436;SDS011;712;51.026;13.792;2023-06-10T13:26:15;7.82;;;4.30;;
1436;SDS011;712;51.026;13.792;2023-06-10T13:28:43;7.90;;;4.40;;
1436;SDS011;712;51.026;13.792;2023-06-10T13:33:33;7.95;;;4.28;;
1436;SDS011;712;51.026;13.792;2023-06-10T13:35:58;7.40;;;3.97;;
1436;SDS011;712;51.026;13.792;2023-06-10T13:38:23;7.22;;;4.20;;
1436;SDS011;712;51.026;13.792;2023-06-10T13:43:14;6.40;;;3.95;;
1436;SDS011;712;51.026;13.792;2023-06-10T13:45:40;7.70;;;4.00;;
1436;SDS011;712;51.026;13.792;2023-06-10T13:50:31;5.93;;;3.63;;
1436;SDS011;712;51.026;13.792;2023-06-10T13:55:21;6.88;;;3.67;;
1436;SDS011;712;51.026;13.792;2023-06-10T13:57:46;7.63;;;3.78;;
1436;SDS011;712;51.026;13.792;2023-06-10T14:02:37;6.53;;;3.90;;
1436;SDS011;712;51.026;13.792;2023-06-10T14:07:27;7.13;;;3.40;;
1436;SDS011;712;51.026;13.792;2023-06-10T14:09:53;6.00;;;3.50;;
1436;SDS011;712;51.026;13.792;2023-06-10T14:14:43;7.35;;;3.60;;
1436;SDS011;712;51.026;13.792;2023-06-10T14:19:33;8.98;;;3.50;;
1436;SDS011;712;51.026;13.792;2023-06-10T14:21:58;6.35;;;3.75;;
1436;SDS011;712;51.026;13.792;2023-06-10T14:26:48;6.28;;;3.30;;
1436;SDS011;712;51.026;13.792;2023-06-10T14:29:14;7.30;;;3.40;;
1436;SDS011;712;51.026;13.792;2023-06-10T14:34:04;5.25;;;3.28;;
1436;SDS011;712;51.026;13.792;2023-06-10T14:36:32;5.70;;;3.40;;
1436;SDS011;712;51.026;13.792;2023-06-10T14:41:23;8.00;;;4.10;;
1436;SDS011;712;51.026;13.792;2023-06-10T14:43:48;8.88;;;3.65;;
1436;SDS011;712;51.026;13.792;2023-06-10T14:48:38;5.93;;;3.37;;
1436;SDS011;712;51.026;13.792;2023-06-10T14:51:03;6.68;;;3.53;;
1436;SDS011;712;51.026;13.792;2023-06-10T14:55:54;6.63;;;3.80;;
1436;SDS011;712;51.026;13.792;2023-06-10T14:58:19;7.10;;;3.83;;
1436;SDS011;712;51.026;13.792;2023-06-10T15:03:09;8.30;;;3.97;;
1436;SDS011;712;51.026;13.792;2023-06-10T15:05:34;10.13;;;4.00;;
1436;SDS011;712;51.026;13.792;2023-06-10T15:08:00;8.40;;;4.03;;
1436;SDS011;712;51.026;13.792;2023-06-10T15:12:50;9.63;;;4.50;;
1436;SDS011;712;51.026;13.792;2023-06-10T15:15:20;8.18;;;4.32;;
1436;SDS011;712;51.026;13.792;2023-06-10T15:20:10;7.88;;;4.75;;
1436;SDS011;712;51.026;13.792;2023-06-10T15:22:36;7.40;;;4.68;;
1436;SDS011;712;51.026;13.792;2023-06-10T15:25:01;7.18;;;4.40;;
1436;SDS011;712;51.026;13.792;2023-06-10T15:29:51;7.75;;;4.85;;
1436;SDS011;712;51.026;13.792;2023-06-10T15:32:16;7.40;;;4.47;;
1436;SDS011;712;51.026;13.792;2023-06-10T15:34:41;7.07;;;5.00;;
1436;SDS011;712;51.026;13.792;2023-06-10T15:39:32;7.22;;;5.00;;
1436;SDS011;712;51.026;13.792;2023-06-10T15:41:57;8.55;;;4.57;;
1436;SDS011;712;51.026;13.792;2023-06-10T15:46:48;5.90;;;4.13;;
1436;SDS011;712;51.026;13.792;2023-06-10T15:49:13;10.87;;;4.93;;
1436;SDS011;712;51.026;13.792;2023-06-10T15:54:03;7.72;;;4.57;;
1436;SDS011;712;51.026;13.792;2023-06-10T15:58:53;8.13;;;4.55;;
1436;SDS011;712;51.026;13.792;2023-06-10T16:01:18;7.43;;;4.60;;
1436;SDS011;712;51.026;13.792;2023-06-10T16:06:09;9.20;;;4.72;;
1436;SDS011;712;51.026;13.792;2023-06-10T16:08:34;8.02;;;4.68;;
1436;SDS011;712;51.026;13.792;2023-06-10T16:13:25;7.97;;;4.82;;
1436;SDS011;712;51.026;13.792;2023-06-10T16:18:15;8.27;;;4.95;;
1436;SDS011;712;51.026;13.792;2023-06-10T16:20:40;7.93;;;4.68;;
1436;SDS011;712;51.026;13.792;2023-06-10T16:25:30;9.05;;;4.97;;
1436;SDS011;712;51.026;13.792;2023-06-10T16:27:56;6.90;;;4.55;;
1436;SDS011;712;51.026;13.792;2023-06-10T16:32:47;7.90;;;4.90;;
1436;SDS011;712;51.026;13.792;2023-06-10T16:37:37;7.70;;;5.03;;
1436;SDS011;712;51.026;13.792;2023-06-10T16:42:27;7.83;;;4.43;;
1436;SDS011;712;51.026;13.792;2023-06-10T16:44:52;7.03;;;4.47;;
1436;SDS011;712;51.026;13.792;2023-06-10T16:49:43;8.07;;;4.40;;
1436;SDS011;712;51.026;13.792;2023-06-10T16:54:33;7.38;;;4.43;;
1436;SDS011;712;51.026;13.792;2023-06-10T16:59:23;6.50;;;4.18;;
1436;SDS011;712;51.026;13.792;2023-06-10T17:04:13;8.15;;;4.80;;
1436;SDS011;712;51.026;13.792;2023-06-10T17:09:04;8.13;;;4.43;;
1436;SDS011;712;51.026;13.792;2023-06-10T17:13:54;7.25;;;4.15;;
1436;SDS011;712;51.026;13.792;2023-06-10T17:18:45;7.32;;;4.32;;
1436;SDS011;712;51.026;13.792;2023-06-10T17:23:36;7.45;;;4.30;;
1436;SDS011;712;51.026;13.792;2023-06-10T17:28:26;7.00;;;4.28;;
1436;SDS011;712;51.026;13.792;2023-06-10T17:33:16;10.30;;;6.40;;
1436;SDS011;712;51.026;13.792;2023-06-10T17:38:06;12.70;;;7.68;;
1436;SDS011;712;51.026;13.792;2023-06-10T17:42:56;12.38;;;7.85;;
1436;SDS011;712;51.026;13.792;2023-06-10T17:47:47;12.07;;;7.32;;
1436;SDS011;712;51.026;13.792;2023-06-10T17:52:37;16.23;;;11.38;;
1436;SDS011;712;51.026;13.792;2023-06-10T17:57:27;22.25;;;14.70;;
1436;SDS011;712;51.026;13.792;2023-06-10T17:59:55;12.93;;;6.35;;
1436;SDS011;712;51.026;13.792;2023-06-10T18:02:20;10.30;;;7.05;;
1436;SDS011;712;51.026;13.792;2023-06-10T18:04:45;9.80;;;6.32;;
1436;SDS011;712;51.026;13.792;2023-06-10T18:07:10;13.10;;;8.38;;
1436;SDS011;712;51.026;13.792;2023-06-10T18:12:01;11.35;;;7.45;;
1436;SDS011;712;51.026;13.792;2023-06-10T18:14:26;11.40;;;7.50;;
1436;SDS011;712;51.026;13.792;2023-06-10T18:19:16;10.73;;;6.32;;
1436;SDS011;712;51.026;13.792;2023-06-10T18:24:07;9.32;;;5.80;;
1436;SDS011;712;51.026;13.792;2023-06-10T18:26:32;8.73;;;5.63;;
1436;SDS011;712;51.026;13.792;2023-06-10T18:28:57;9.77;;;5.30;;
1436;SDS011;712;51.026;13.792;2023-06-10T18:31:22;7.85;;;4.50;;
1436;SDS011;712;51.026;13.792;2023-06-10T18:33:48;7.93;;;5.30;;
1436;SDS011;712;51.026;13.792;2023-06-10T18:36:13;8.73;;;5.00;;
1436;SDS011;712;51.026;13.792;2023-06-10T18:41:03;8.32;;;5.25;;
1436;SDS011;712;51.026;13.792;2023-06-10T18:43:29;8.53;;;5.43;;
1436;SDS011;712;51.026;13.792;2023-06-10T18:45:54;12.20;;;5.47;;
1436;SDS011;712;51.026;13.792;2023-06-10T18:48:19;8.88;;;5.45;;